This is the latest recevied weather packets stored in our database for station/object N4CVG. If no packets are shown the sender has not sent any weather packets the latest 10 day(s).
| Time | Temp. | Humidity | Pressure | Rain* | Wind** | Luminosity | Snow |
|---|---|---|---|---|---|---|---|
| 1777176623 | 17.22° C | 76% | 1010.6 hPa | 0 mm | - | - | - |
| 1777171800 | 18.33° C | 71% | 1010.4 hPa | 0 mm | - | - | - |
| 1777170601 | 18.33° C | 69% | 1010.3 hPa | 0 mm | - | - | - |
| 1777165800 | 18.89° C | 64% | 1009.6 hPa | 0 mm | - | - | - |
| 1777164001 | 19.44° C | 62% | 1009.1 hPa | 0 mm | - | - | - |
| 1777162800 | 20.56° C | 61% | 1008.9 hPa | 0 mm | - | - | - |
| 1777162201 | 20.56° C | 60% | 1008.8 hPa | 0 mm | - | - | - |
| 1777158000 | 23.89° C | 55% | 1008.2 hPa | 0 mm | - | - | - |
| 1777157424 | 24.44° C | 54% | 1008.2 hPa | 0 mm | - | - | - |
| 1777156800 | 25° C | 53% | 1008.1 hPa | 0 mm | - | - | - |
| 1777156201 | 24.44° C | 55% | 1008.1 hPa | 0 mm | - | - | - |
| 1777155601 | 24.44° C | 56% | 1008.1 hPa | 0 mm | - | - | - |
| 1777151400 | 24.44° C | 58% | 1008.1 hPa | 0 mm | - | - | - |
| 1777149600 | 25° C | 61% | 1008.3 hPa | 0 mm | - | - | - |
| 1777146000 | 24.44° C | 59% | 1008.7 hPa | 0 mm | - | - | - |
| 1777145400 | 23.89° C | 62% | 1008.8 hPa | 0 mm | - | - | - |
| 1777143601 | 23.89° C | 61% | 1009.2 hPa | 0 mm | - | - | - |
| 1777143000 | 23.33° C | 62% | 1009.3 hPa | 0 mm | - | - | - |
| 1777132801 | 20° C | 78% | 1010 hPa | 0 mm | - | - | - |
| 1777131001 | 19.44° C | 78% | 1010 hPa | 0 mm | - | - | - |
| 1777125001 | 16.67° C | 88% | 1009.8 hPa | 0 mm | - | - | - |
| 1777124400 | 16.67° C | 89% | 1009.8 hPa | 0 mm | - | - | - |
| 1777122001 | 16.11° C | 93% | 1009.4 hPa | 0 mm | - | - | - |
* Rain latest hour (hover to see other rain measurements)
** Current wind speed in m/s (hover to see current wind gust speed)